Time;durP1;ratioP1;P1;durP2;ratioP2;P2;SDS_P1;SDS_P2;PMS_P1;PMS_P2;Temp;Humidity;BMP_temperature;BMP_pressure;BME280_temperature;BME280_humidity;BME280_pressure;Samples;Min_cycle;Max_cycle;Signal;HPM_P1;HPM_P2
2021/09/08 05:32:18;;;;;;;14.82;8.70;;;;;;;15.23;100.00;102183.44;6302650;22;20027;-71
2021/09/08 05:35:04;;;;;;;13.68;8.90;;;;;;;15.69;100.00;102188.09;6311797;22;20015;-72
2021/09/08 05:37:51;;;;;;;15.45;8.95;;;;;;;15.58;100.00;102182.06;6275377;22;20108;-71
2021/09/08 05:40:37;;;;;;;17.67;8.55;;;;;;;15.93;100.00;102187.69;6276755;22;20011;-72
2021/09/08 05:43:22;;;;;;;15.20;8.45;;;;;;;16.25;100.00;102173.94;6275252;22;20003;-71
2021/09/08 05:46:08;;;;;;;12.60;7.10;;;;;;;15.88;100.00;102178.97;6277559;22;20003;-72
2021/09/08 05:48:54;;;;;;;14.00;7.30;;;;;;;16.02;100.00;102176.97;6276853;22;19999;-71
2021/09/08 05:51:40;;;;;;;11.10;6.57;;;;;;;16.42;100.00;102177.16;6277156;22;20022;-72
2021/09/08 05:54:26;;;;;;;18.58;5.88;;;;;;;16.65;100.00;102170.56;6276080;22;20018;-72
2021/09/08 05:57:12;;;;;;;16.70;6.55;;;;;;;16.84;100.00;102173.72;6276331;22;20091;-71
2021/09/08 05:59:58;;;;;;;10.63;6.05;;;;;;;16.60;100.00;102168.91;6277489;22;20031;-72
2021/09/08 06:02:43;;;;;;;12.00;5.85;;;;;;;16.95;100.00;102174.34;6275179;22;20015;-72
2021/09/08 06:05:29;;;;;;;11.07;6.18;;;;;;;16.90;100.00;102173.59;6278170;22;20046;-71
2021/09/08 06:08:15;;;;;;;18.52;5.78;;;;;;;16.89;100.00;102185.09;6276028;22;19996;-72
2021/09/08 06:11:01;;;;;;;9.93;5.20;;;;;;;16.73;100.00;102186.28;6275379;22;20004;-72
2021/09/08 06:13:46;;;;;;;9.10;5.03;;;;;;;16.87;100.00;102189.53;6276051;22;20422;-71
2021/09/08 06:16:32;;;;;;;9.13;4.82;;;;;;;17.29;100.00;102188.66;6275685;22;20008;-72
2021/09/08 06:19:18;;;;;;;9.68;4.80;;;;;;;17.61;100.00;102180.91;6276953;22;20030;-72
2021/09/08 06:22:04;;;;;;;9.57;4.65;;;;;;;17.95;100.00;102190.66;6277479;22;20003;-72
2021/09/08 06:24:50;;;;;;;7.32;4.78;;;;;;;18.24;100.00;102187.25;6275432;22;20041;-72
2021/09/08 06:27:36;;;;;;;9.23;4.50;;;;;;;17.68;100.00;102193.97;6276138;22;20011;-72
2021/09/08 06:30:22;;;;;;;8.90;4.20;;;;;;;17.70;100.00;102191.28;6277552;22;20313;-72
2021/09/08 09:11:00;;;;;;;4.45;2.10;;;;;;;23.79;69.62;102140.50;6299480;22;20050;-72
2021/09/08 09:13:47;;;;;;;7.72;2.53;;;;;;;23.38;71.89;102139.84;6307365;22;20413;-72
2021/09/08 09:16:35;;;;;;;5.70;2.30;;;;;;;23.48;73.93;102131.28;6306860;22;20007;-72
2021/09/08 09:19:21;;;;;;;4.35;2.47;;;;;;;23.66;70.89;102134.03;6306071;22;20017;-72
2021/09/08 09:22:07;;;;;;;9.38;2.50;;;;;;;24.49;68.69;102128.81;6309489;22;20086;-72
2021/09/08 09:24:53;;;;;;;7.05;2.50;;;;;;;24.62;68.50;102131.72;6306968;22;20110;-72
2021/09/08 09:27:49;;;;;;;9.38;3.25;;;;;;;24.29;67.24;102120.97;6307734;22;20399;-72
2021/09/08 09:30:39;;;;;;;6.10;2.90;;;;;;;24.30;67.56;102127.19;6306246;22;20003;-72
2021/09/08 09:33:30;;;;;;;5.80;2.70;;;;;;;23.86;67.26;102115.19;6307362;22;20061;-72
2021/09/08 09:36:21;;;;;;;8.65;2.53;;;;;;;24.16;66.36;102119.88;6306282;22;20022;-71
2021/09/08 09:39:07;;;;;;;6.25;2.53;;;;;;;23.69;66.31;102121.34;6306959;22;20306;-71
2021/09/08 09:41:53;;;;;;;3.88;2.50;;;;;;;24.05;65.82;102113.31;6306746;22;20017;-72
2021/09/08 09:44:41;;;;;;;7.15;2.67;;;;;;;23.51;66.82;102114.25;6307784;22;20081;-72
2021/09/08 09:47:27;;;;;;;7.18;2.50;;;;;;;23.48;68.51;102102.81;6306245;22;20007;-72
2021/09/08 13:00:07;;;;;;;6.40;3.10;;;;;;;26.38;49.98;101902.91;6282434;22;20117;-73
2021/09/08 13:02:52;;;;;;;7.25;2.67;;;;;;;26.35;48.52;101903.09;6307062;22;20298;-73
2021/09/08 13:05:39;;;;;;;7.97;2.80;;;;;;;26.28;48.25;101896.38;6308086;22;20006;-73
2021/09/08 13:08:25;;;;;;;6.47;2.65;;;;;;;26.39;48.15;101893.00;6305986;22;20007;-72
2021/09/08 13:11:10;;;;;;;5.05;2.60;;;;;;;26.11;48.43;101884.97;6307432;22;20026;-72
2021/09/08 13:13:56;;;;;;;6.60;3.00;;;;;;;26.23;48.46;101884.19;6306587;22;20081;-73
2021/09/08 13:16:43;;;;;;;6.15;2.65;;;;;;;26.16;48.55;101885.59;6307621;22;20022;-73
2021/09/08 13:19:28;;;;;;;9.07;2.97;;;;;;;26.46;47.82;101880.91;6307068;22;20014;-72
2021/09/08 13:22:17;;;;;;;5.72;2.80;;;;;;;26.60;47.46;101884.44;6308797;22;20084;-73
2021/09/08 13:25:03;;;;;;;5.28;2.58;;;;;;;26.43;47.58;101881.09;6307461;22;20031;-72
2021/09/08 13:27:49;;;;;;;6.78;2.58;;;;;;;26.17;47.79;101871.19;6307329;22;20007;-73
2021/09/08 13:30:35;;;;;;;4.75;2.35;;;;;;;26.36;47.74;101864.50;6306900;22;20038;-73
2021/09/08 13:33:21;;;;;;;7.38;2.70;;;;;;;26.12;47.76;101858.03;6308145;22;20031;-72
2021/09/08 13:36:06;;;;;;;6.03;2.60;;;;;;;25.93;48.05;101861.94;6307251;22;20015;-72
2021/09/08 13:38:52;;;;;;;11.60;2.92;;;;;;;25.91;48.02;101845.94;6308062;22;20437;-73
2021/09/08 13:41:40;;;;;;;5.45;2.80;;;;;;;26.29;47.72;101852.41;6308308;22;20508;-73
2021/09/08 13:44:26;;;;;;;4.72;2.45;;;;;;;26.19;48.38;101837.00;6306743;22;20335;-73
2021/09/08 13:47:12;;;;;;;10.35;2.58;;;;;;;26.32;48.61;101849.53;6306301;22;20068;-72
2021/09/08 13:49:58;;;;;;;7.93;2.65;;;;;;;26.44;48.61;101842.53;6307884;22;20410;-73
2021/09/08 13:52:44;;;;;;;6.78;2.72;;;;;;;26.43;48.49;101847.03;6307796;22;20018;-73
2021/09/08 13:55:30;;;;;;;6.50;2.70;;;;;;;26.22;47.83;101836.81;6307101;22;20011;-72
2021/09/08 13:58:15;;;;;;;4.95;2.72;;;;;;;26.33;47.73;101834.28;6308453;22;20007;-72
2021/09/08 21:53:32;;;;;;;6.32;3.53;;;;;;;19.74;98.38;101847.84;6259219;22;20056;31
2021/09/08 21:56:18;;;;;;;6.60;3.63;;;;;;;19.66;99.98;101846.38;6263390;22;20500;-72
2021/09/08 21:59:04;;;;;;;6.43;3.30;;;;;;;19.37;100.00;101852.72;6255691;22;20020;-72
2021/09/08 22:01:50;;;;;;;9.77;3.70;;;;;;;19.41;100.00;101851.69;6276678;22;20004;-72
2021/09/08 22:04:36;;;;;;;12.60;3.30;;;;;;;19.30;100.00;101845.91;6277785;22;20003;-72
2021/09/08 22:07:22;;;;;;;5.88;3.55;;;;;;;19.57;100.00;101846.72;6275922;22;20010;-71
2021/09/08 22:10:08;;;;;;;6.05;3.38;;;;;;;19.11;100.00;101844.78;6277456;22;20004;-72
2021/09/08 22:12:54;;;;;;;6.55;3.65;;;;;;;18.93;100.00;101843.63;6276740;22;20340;-72
